createdAt,value
2019-03-25T00:00:37.207Z,7.40
2019-03-25T00:03:06.181Z,7.30
2019-03-25T00:05:35.012Z,7.40
2019-03-25T00:08:03.976Z,7.30
2019-03-25T00:10:32.844Z,7.30
2019-03-25T00:13:01.680Z,7.20
2019-03-25T00:15:30.552Z,7.20
2019-03-25T00:17:59.418Z,7.20
2019-03-25T00:20:28.248Z,7.10
2019-03-25T00:22:57.106Z,7.10
2019-03-25T00:25:25.983Z,7.10
2019-03-25T00:27:54.818Z,7.00
2019-03-25T00:30:23.688Z,7.00
2019-03-25T00:32:52.559Z,6.90
2019-03-25T00:35:21.388Z,6.90
2019-03-25T00:37:50.259Z,6.90
2019-03-25T00:40:19.120Z,6.90
2019-03-25T00:42:47.950Z,6.90
2019-03-25T00:45:16.810Z,6.90
2019-03-25T00:47:45.680Z,6.90
2019-03-25T00:50:14.504Z,6.90
2019-03-25T00:52:43.380Z,6.80
2019-03-25T00:55:12.242Z,6.80
2019-03-25T00:57:41.079Z,6.80
2019-03-25T01:00:10.450Z,6.80
2019-03-25T01:02:39.312Z,6.70
2019-03-25T01:05:08.642Z,6.70
2019-03-25T01:07:37.520Z,6.60
2019-03-25T01:10:08.686Z,6.60
2019-03-25T01:12:37.582Z,6.50
2019-03-25T01:15:07.794Z,6.50
2019-03-25T01:17:36.660Z,6.50
2019-03-25T01:20:09.064Z,6.40
2019-03-25T01:22:37.901Z,6.40
2019-03-25T01:25:08.235Z,6.30
2019-03-25T01:27:37.074Z,6.30
2019-03-25T01:30:08.043Z,6.30
2019-03-25T01:32:36.914Z,6.20
2019-03-25T01:35:06.870Z,6.20
2019-03-25T01:37:35.707Z,6.20
2019-03-25T01:40:07.075Z,6.20
2019-03-25T01:42:36.012Z,6.10
2019-03-25T01:45:06.579Z,6.10
2019-03-25T01:47:35.451Z,6.00
2019-03-25T01:50:07.875Z,6.00
2019-03-25T01:52:36.735Z,5.90
2019-03-25T01:55:13.382Z,5.90
2019-03-25T01:57:36.180Z,5.90
2019-03-25T02:00:07.455Z,5.90
2019-03-25T02:02:36.327Z,5.80
2019-03-25T02:05:06.557Z,5.80
2019-03-25T02:07:35.427Z,5.80
2019-03-25T02:10:06.305Z,5.80
2019-03-25T02:12:35.126Z,5.80
2019-03-25T02:15:04.109Z,5.80
2019-03-25T02:17:32.978Z,5.70
2019-03-25T02:20:01.808Z,5.70
2019-03-25T02:22:30.747Z,5.70
2019-03-25T02:24:59.648Z,5.70
2019-03-25T02:27:28.475Z,5.70
2019-03-25T02:29:57.338Z,5.70
2019-03-25T02:32:26.211Z,5.70
2019-03-25T02:34:55.648Z,5.70
2019-03-25T02:37:24.516Z,5.70
2019-03-25T02:39:53.394Z,5.60
2019-03-25T02:42:22.226Z,5.70
2019-03-25T02:44:51.093Z,5.60
2019-03-25T02:47:19.960Z,5.60
2019-03-25T02:49:48.809Z,5.60
2019-03-25T02:52:17.665Z,5.50
2019-03-25T02:54:46.526Z,5.50
2019-03-25T02:57:15.365Z,5.50
2019-03-25T02:59:44.229Z,5.50
2019-03-25T03:02:13.100Z,5.50
2019-03-25T03:04:41.921Z,5.50
2019-03-25T03:07:10.800Z,5.40
2019-03-25T03:09:39.958Z,5.40
2019-03-25T03:12:08.788Z,5.40
2019-03-25T03:14:37.651Z,5.40
2019-03-25T03:17:06.516Z,5.30
2019-03-25T03:19:35.353Z,5.30
2019-03-25T03:22:04.216Z,5.20
2019-03-25T03:24:33.093Z,5.20
2019-03-25T03:27:01.913Z,5.10
2019-03-25T03:29:30.787Z,5.00
2019-03-25T03:31:59.653Z,5.00
2019-03-25T03:34:28.493Z,4.90
2019-03-25T03:36:57.347Z,4.80
2019-03-25T03:39:26.225Z,4.80
2019-03-25T03:41:55.057Z,4.70
2019-03-25T03:44:23.916Z,4.60
2019-03-25T03:46:52.789Z,4.60
2019-03-25T03:49:21.618Z,4.60
2019-03-25T03:51:51.271Z,4.50
2019-03-25T03:54:20.250Z,4.50
2019-03-25T03:56:51.174Z,4.40
2019-03-25T03:59:20.451Z,4.40
2019-03-25T04:01:49.308Z,4.30
2019-03-25T04:04:18.136Z,4.30
2019-03-25T04:06:47.003Z,4.30
2019-03-25T04:09:15.885Z,4.20
2019-03-25T04:11:44.711Z,4.10
2019-03-25T04:14:13.568Z,4.10
2019-03-25T04:16:42.448Z,4.10
2019-03-25T04:19:11.376Z,4.00
2019-03-25T04:21:41.370Z,4.00
2019-03-25T04:24:10.272Z,3.90
2019-03-25T04:26:39.166Z,3.80
2019-03-25T04:29:08.065Z,3.80
2019-03-25T04:35:06.926Z,3.60
2019-03-25T04:37:35.969Z,3.60
2019-03-25T04:40:09.315Z,3.50
2019-03-25T04:42:38.191Z,3.40
2019-03-25T04:45:07.663Z,3.40
2019-03-25T04:47:36.486Z,3.40
2019-03-25T04:50:06.946Z,3.30
2019-03-25T04:52:35.817Z,3.30
2019-03-25T04:55:05.841Z,3.20
2019-03-25T04:57:34.708Z,3.20
2019-03-25T05:00:04.490Z,3.20
2019-03-25T05:02:33.307Z,3.20
2019-03-25T05:05:02.181Z,3.10
2019-03-25T05:07:31.053Z,3.10
2019-03-25T05:09:59.946Z,3.10
2019-03-25T05:12:28.915Z,3.00
2019-03-25T05:14:57.829Z,3.00
2019-03-25T05:17:26.721Z,3.00
2019-03-25T05:19:55.566Z,3.00
2019-03-25T05:22:24.423Z,3.00
2019-03-25T05:24:53.252Z,3.00
2019-03-25T05:27:22.183Z,3.00
2019-03-25T05:29:51.074Z,2.90
2019-03-25T05:32:19.968Z,2.90
2019-03-25T05:34:48.817Z,2.90
2019-03-25T05:37:17.686Z,2.90
2019-03-25T05:39:46.516Z,2.90
2019-03-25T05:42:15.358Z,2.90
2019-03-25T05:44:44.230Z,2.90
2019-03-25T05:47:13.055Z,2.90
2019-03-25T05:49:41.917Z,2.90
2019-03-25T05:52:10.774Z,2.90
2019-03-25T05:54:39.604Z,2.90
2019-03-25T05:57:08.475Z,2.90
2019-03-25T05:59:37.347Z,2.90
2019-03-25T06:02:06.173Z,3.00
2019-03-25T06:04:35.143Z,3.00
2019-03-25T06:07:05.944Z,3.00
2019-03-25T06:09:34.563Z,3.10
2019-03-25T06:12:03.426Z,3.10
2019-03-25T06:14:32.346Z,3.10
2019-03-25T06:17:01.339Z,3.20
2019-03-25T06:19:31.925Z,3.20
2019-03-25T06:22:00.862Z,3.30
2019-03-25T06:24:29.671Z,3.40
2019-03-25T06:26:58.644Z,3.50
2019-03-25T06:29:27.484Z,3.60
2019-03-25T06:31:56.307Z,3.70
2019-03-25T06:34:25.167Z,3.80
2019-03-25T06:36:54.041Z,4.00
2019-03-25T06:39:22.864Z,4.10
2019-03-25T06:41:51.733Z,4.20
2019-03-25T06:44:20.615Z,4.30
2019-03-25T06:46:49.572Z,4.40
2019-03-25T06:49:18.463Z,4.60
2019-03-25T06:51:47.328Z,4.70
2019-03-25T06:54:16.247Z,4.80
2019-03-25T06:56:45.135Z,4.90
2019-03-25T06:59:14.025Z,5.00
2019-03-25T07:01:42.917Z,5.10
2019-03-25T07:04:11.809Z,5.20
2019-03-25T07:06:40.705Z,5.40
2019-03-25T07:09:09.795Z,5.40
2019-03-25T07:11:40.244Z,5.50
2019-03-25T07:14:09.191Z,5.70
2019-03-25T07:16:38.108Z,5.70
2019-03-25T07:19:08.081Z,5.90
2019-03-25T07:21:37.017Z,6.00
2019-03-25T07:24:42.171Z,6.10
2019-03-25T07:27:11.099Z,6.20
2019-03-25T07:29:39.885Z,6.40
2019-03-25T07:32:09.126Z,6.60
2019-03-25T07:34:38.014Z,6.70
2019-03-25T07:37:06.840Z,6.90
2019-03-25T07:39:35.739Z,7.00
2019-03-25T07:42:04.611Z,7.10
2019-03-25T07:44:33.428Z,7.10
2019-03-25T07:47:02.310Z,7.10
2019-03-25T07:49:31.158Z,7.10
2019-03-25T07:51:59.983Z,7.10
2019-03-25T07:54:28.872Z,7.10
2019-03-25T07:56:57.734Z,7.10
2019-03-25T07:59:26.665Z,7.00
2019-03-25T08:02:02.797Z,7.00
2019-03-25T08:04:34.337Z,7.00
2019-03-25T08:07:02.949Z,6.90
2019-03-25T08:09:33.674Z,7.00
2019-03-25T08:12:02.640Z,6.90
2019-03-25T08:14:31.545Z,6.90
2019-03-25T08:17:00.446Z,6.80
2019-03-25T08:19:30.978Z,6.70
2019-03-25T08:21:59.866Z,6.60
2019-03-25T08:24:28.758Z,6.50
2019-03-25T08:26:57.756Z,6.50
2019-03-25T08:29:26.643Z,6.50
2019-03-25T08:31:55.534Z,6.40
2019-03-25T08:34:24.430Z,6.30
2019-03-25T08:36:53.315Z,6.30
2019-03-25T08:39:22.206Z,6.30
2019-03-25T08:41:51.099Z,6.20
2019-03-25T08:44:20.297Z,6.20
2019-03-25T08:46:49.288Z,6.20
2019-03-25T08:49:18.181Z,6.10
2019-03-25T08:52:38.777Z,6.00
2019-03-25T08:55:08.085Z,6.00
2019-03-25T08:57:36.980Z,5.90
2019-03-25T09:00:08.533Z,5.80
2019-03-25T09:02:37.423Z,5.70
2019-03-25T09:05:07.928Z,5.60
2019-03-25T09:07:36.930Z,5.60
2019-03-25T09:10:09.219Z,5.70
2019-03-25T09:12:38.311Z,5.80
2019-03-25T09:15:10.456Z,5.90
2019-03-25T09:17:39.370Z,5.90
2019-03-25T09:20:08.778Z,6.00
2019-03-25T09:22:37.847Z,6.00
2019-03-25T09:25:09.836Z,6.00
2019-03-25T09:27:38.697Z,6.10
2019-03-25T09:30:11.420Z,6.10
2019-03-25T09:32:40.501Z,6.20
2019-03-25T09:35:10.203Z,6.30
2019-03-25T09:37:39.818Z,6.30
2019-03-25T09:40:10.965Z,6.40
2019-03-25T09:42:39.855Z,6.40
2019-03-25T09:45:09.951Z,6.40
2019-03-25T09:47:38.865Z,6.50
2019-03-25T09:50:08.664Z,6.50
2019-03-25T09:52:38.683Z,6.60
2019-03-25T09:55:08.896Z,6.70
2019-03-25T09:57:37.809Z,6.70
2019-03-25T10:00:11.925Z,6.80
2019-03-25T10:02:40.788Z,6.80
2019-03-25T10:05:09.911Z,6.80
2019-03-25T10:07:38.904Z,6.70
2019-03-25T10:10:10.867Z,6.60
2019-03-25T10:12:39.762Z,6.50
2019-03-25T10:15:09.470Z,6.40
2019-03-25T10:17:38.438Z,6.40
2019-03-25T10:20:10.287Z,6.30
2019-03-25T10:22:39.131Z,6.30
2019-03-25T10:25:09.027Z,6.30
2019-03-25T10:27:38.002Z,6.30
2019-03-25T10:30:09.835Z,6.30
2019-03-25T10:32:38.708Z,6.40
2019-03-25T10:35:08.136Z,6.40
2019-03-25T10:37:37.002Z,6.50
2019-03-25T10:40:06.667Z,6.50
2019-03-25T10:42:35.493Z,6.60
2019-03-25T10:45:08.295Z,6.70
2019-03-25T10:47:37.168Z,6.70
2019-03-25T10:50:06.892Z,6.70
2019-03-25T10:52:35.843Z,6.80
2019-03-25T10:55:08.522Z,6.80
2019-03-25T10:57:37.617Z,6.80
2019-03-25T11:00:11.847Z,6.80
2019-03-25T11:02:40.827Z,6.90
2019-03-25T11:08:38.597Z,7.30
2019-03-25T11:11:08.558Z,7.80
2019-03-25T11:13:37.629Z,8.10
2019-03-25T11:16:06.520Z,8.50
2019-03-25T11:18:35.355Z,8.60
2019-03-25T11:21:04.182Z,8.60
2019-03-25T11:23:33.064Z,8.50
2019-03-25T11:26:01.911Z,8.70
2019-03-25T11:28:30.739Z,8.80
2019-03-25T11:30:59.919Z,8.90
2019-03-25T11:33:28.888Z,9.10
2019-03-25T11:35:57.815Z,9.10
2019-03-25T11:38:26.682Z,9.30
2019-03-25T11:40:55.584Z,9.50
2019-03-25T11:43:24.403Z,9.70
2019-03-25T11:45:53.372Z,9.70
2019-03-25T11:48:22.263Z,9.80
2019-03-25T11:50:51.131Z,9.80
2019-03-25T11:53:19.995Z,9.80
2019-03-25T11:55:48.859Z,9.80
2019-03-25T11:58:17.796Z,9.90
2019-03-25T12:00:46.771Z,10.20
2019-03-25T12:03:15.644Z,10.20
2019-03-25T12:05:46.270Z,10.00
2019-03-25T12:08:15.181Z,9.70
2019-03-25T12:10:44.071Z,9.00
2019-03-25T12:13:12.963Z,8.10
2019-03-25T12:15:41.854Z,7.20
2019-03-25T12:19:02.563Z,6.40
2019-03-25T12:21:31.436Z,5.70
2019-03-25T12:24:01.314Z,5.20
2019-03-25T12:26:32.155Z,4.80
2019-03-25T12:29:00.793Z,4.40
2019-03-25T12:31:29.679Z,4.10
2019-03-25T12:33:58.571Z,3.90
2019-03-25T12:36:27.435Z,3.80
2019-03-25T12:38:58.039Z,3.80
2019-03-25T12:41:26.958Z,4.10
2019-03-25T12:44:22.105Z,4.50
2019-03-25T12:46:50.977Z,4.90
2019-03-25T12:49:19.815Z,5.40
2019-03-25T12:51:48.707Z,5.70
2019-03-25T12:54:17.658Z,6.20
2019-03-25T12:56:46.547Z,6.50
2019-03-25T12:59:15.440Z,6.70
2019-03-25T13:01:52.577Z,7.10
2019-03-25T13:04:14.860Z,7.40
2019-03-25T13:06:43.696Z,7.60
2019-03-25T13:09:12.565Z,7.70
2019-03-25T13:11:41.387Z,7.60
2019-03-25T13:14:10.328Z,7.50
2019-03-25T13:16:39.321Z,7.30
2019-03-25T13:19:08.210Z,7.10
2019-03-25T13:21:37.105Z,6.90
2019-03-25T13:24:05.964Z,6.60
2019-03-25T13:26:34.881Z,6.40
2019-03-25T13:29:03.777Z,6.30
2019-03-25T13:31:32.765Z,6.40
2019-03-25T13:34:01.659Z,6.60
2019-03-25T13:36:30.549Z,6.90
2019-03-25T13:38:59.439Z,7.10
2019-03-25T13:41:30.015Z,7.40
2019-03-25T13:43:58.867Z,7.70
2019-03-25T13:46:27.735Z,7.90
2019-03-25T13:48:56.572Z,8.00
2019-03-25T13:51:25.424Z,8.20
2019-03-25T13:53:54.295Z,8.40
2019-03-25T13:56:23.133Z,8.60
2019-03-25T13:58:52.032Z,8.90
2019-03-25T14:01:20.935Z,9.00
2019-03-25T14:03:49.751Z,9.10
2019-03-25T14:06:18.623Z,8.90
2019-03-25T14:08:47.483Z,8.60
2019-03-25T14:11:16.507Z,8.30
2019-03-25T14:13:49.407Z,7.90
2019-03-25T14:16:15.894Z,7.60
2019-03-25T14:18:44.724Z,7.20
2019-03-25T14:21:13.584Z,7.00
2019-03-25T14:23:42.446Z,6.70
2019-03-25T14:26:11.279Z,6.60
2019-03-25T14:28:40.147Z,6.50
2019-03-25T14:31:09.011Z,6.60
2019-03-25T14:33:37.839Z,6.70
2019-03-25T14:36:06.696Z,7.00
2019-03-25T14:38:35.559Z,7.30
2019-03-25T14:41:04.384Z,7.50
2019-03-25T14:43:33.251Z,7.70
2019-03-25T14:46:02.110Z,7.80
2019-03-25T14:48:30.939Z,7.90
2019-03-25T14:51:05.939Z,8.00
2019-03-25T14:53:44.820Z,8.10
2019-03-25T14:56:05.285Z,8.10
2019-03-25T14:58:34.137Z,8.10
2019-03-25T15:01:03.455Z,8.00
2019-03-25T15:03:32.215Z,7.90
2019-03-25T15:06:01.087Z,7.90
2019-03-25T15:08:29.947Z,8.00
2019-03-25T15:10:58.772Z,8.00
2019-03-25T15:13:27.642Z,8.10
2019-03-25T15:15:56.506Z,8.10
2019-03-25T15:18:25.327Z,8.10
2019-03-25T15:20:54.300Z,8.00
2019-03-25T15:23:23.314Z,8.00
2019-03-25T15:25:53.324Z,7.90
2019-03-25T15:28:22.331Z,7.80
2019-03-25T15:30:51.221Z,7.70
2019-03-25T15:33:20.111Z,7.50
2019-03-25T15:35:48.942Z,7.30
2019-03-25T15:38:17.864Z,7.10
2019-03-25T15:40:46.785Z,6.90
2019-03-25T15:43:58.376Z,6.80
2019-03-25T15:46:27.356Z,6.60
2019-03-25T15:48:56.236Z,6.40
2019-03-25T15:51:25.155Z,6.20
2019-03-25T15:53:54.043Z,6.10
2019-03-25T15:56:22.914Z,6.00
2019-03-25T15:58:51.802Z,6.00
2019-03-25T16:01:20.669Z,6.00
2019-03-25T16:03:49.609Z,6.10
2019-03-25T16:06:18.503Z,6.10
2019-03-25T16:08:47.437Z,6.30
2019-03-25T16:11:16.384Z,6.40
2019-03-25T16:13:45.275Z,6.30
2019-03-25T16:16:14.167Z,6.20
2019-03-25T16:18:43.060Z,6.30
2019-03-25T16:21:11.951Z,6.20
2019-03-25T16:23:41.147Z,6.30
2019-03-25T16:26:10.120Z,6.30
2019-03-25T16:28:39.006Z,6.40
2019-03-25T16:31:08.026Z,6.40
2019-03-25T16:33:36.917Z,6.40
2019-03-25T16:36:05.911Z,6.40
2019-03-25T16:38:34.803Z,6.30
2019-03-25T16:41:03.695Z,6.20
2019-03-25T16:43:32.589Z,6.20
2019-03-25T16:46:01.483Z,6.20
2019-03-25T16:48:30.283Z,6.20
2019-03-25T16:50:59.265Z,6.20
2019-03-25T16:53:28.061Z,6.10
2019-03-25T16:55:56.912Z,6.10
2019-03-25T16:58:25.830Z,6.10
2019-03-25T17:00:54.721Z,6.00
2019-03-25T17:03:23.612Z,6.00
2019-03-25T17:05:52.503Z,5.90
2019-03-25T17:08:21.496Z,5.80
2019-03-25T17:10:50.490Z,5.80
2019-03-25T17:13:19.592Z,5.70
2019-03-25T17:15:48.481Z,5.60
2019-03-25T17:18:17.369Z,5.60
2019-03-25T17:20:46.261Z,5.50
2019-03-25T17:23:15.153Z,5.40
2019-03-25T17:25:52.717Z,5.40
2019-03-25T17:28:14.601Z,5.30
2019-03-25T17:30:43.567Z,5.30
2019-03-25T17:33:12.459Z,5.20
2019-03-25T17:35:41.452Z,5.10
2019-03-25T17:38:10.344Z,5.10
2019-03-25T17:41:06.167Z,5.00
2019-03-25T17:43:35.028Z,5.00
2019-03-25T17:46:03.863Z,4.90
2019-03-25T17:48:32.723Z,4.80
2019-03-25T17:51:01.604Z,4.80
2019-03-25T17:53:30.428Z,4.80
2019-03-25T17:55:59.414Z,4.70
2019-03-25T17:58:28.405Z,4.70
2019-03-25T18:01:03.130Z,4.60
2019-03-25T18:03:32.108Z,4.60
2019-03-25T18:06:01.018Z,4.70
2019-03-25T18:08:30.010Z,4.70
2019-03-25T18:10:58.878Z,4.70
2019-03-25T18:13:27.795Z,4.70
2019-03-25T18:15:56.663Z,4.70
2019-03-25T18:18:25.575Z,4.80
2019-03-25T18:20:54.466Z,4.80
2019-03-25T18:23:56.637Z,4.80
2019-03-25T18:26:25.531Z,4.80
2019-03-25T18:28:54.421Z,4.80
2019-03-25T18:31:23.516Z,4.70
2019-03-25T18:33:52.509Z,4.70
2019-03-25T18:36:21.540Z,4.60
2019-03-25T18:38:50.408Z,4.60
2019-03-25T18:41:19.272Z,4.50
2019-03-25T18:43:50.663Z,4.40
2019-03-25T18:46:19.532Z,4.40
2019-03-25T18:49:03.603Z,4.30
2019-03-25T18:51:32.487Z,4.30
2019-03-25T18:54:01.339Z,4.20
2019-03-25T18:56:30.194Z,4.10
2019-03-25T18:58:59.051Z,4.10
2019-03-25T19:01:33.371Z,4.00
2019-03-25T19:04:02.662Z,4.00
2019-03-25T19:06:31.770Z,3.90
2019-03-25T19:09:00.758Z,3.80
2019-03-25T19:11:32.592Z,3.80
2019-03-25T19:14:01.505Z,3.80
2019-03-25T19:16:30.393Z,3.70
2019-03-25T19:18:59.279Z,3.70
2019-03-25T19:21:28.272Z,3.60
2019-03-25T19:23:57.200Z,3.60
2019-03-25T19:26:26.055Z,3.50
2019-03-25T19:28:54.946Z,3.50
2019-03-25T19:31:23.855Z,3.50
2019-03-25T19:33:52.756Z,3.40
2019-03-25T19:36:21.619Z,3.40
2019-03-25T19:38:50.555Z,3.30
2019-03-25T19:41:31.513Z,3.30
2019-03-25T19:43:50.038Z,3.20
2019-03-25T19:46:18.955Z,3.20
2019-03-25T19:48:47.818Z,3.20
2019-03-25T19:51:16.737Z,3.10
2019-03-25T19:53:45.701Z,3.10
2019-03-25T19:56:14.592Z,3.00
2019-03-25T19:58:43.600Z,3.00
2019-03-25T20:01:12.489Z,3.00
2019-03-25T20:03:41.368Z,2.90
2019-03-25T20:06:10.376Z,2.90
2019-03-25T20:08:39.282Z,2.90
2019-03-25T20:11:08.145Z,2.80
2019-03-25T20:13:37.134Z,2.80
2019-03-25T20:16:06.549Z,2.80
2019-03-25T20:18:35.432Z,2.80
2019-03-25T20:21:04.420Z,2.80
2019-03-25T20:23:33.482Z,2.80
2019-03-25T20:26:02.451Z,2.70
2019-03-25T20:28:31.428Z,2.80
2019-03-25T20:31:00.503Z,2.70
2019-03-25T20:33:29.398Z,2.70
2019-03-25T20:36:31.714Z,2.70
2019-03-25T20:39:01.646Z,2.70
2019-03-25T20:41:30.591Z,2.70
2019-03-25T20:43:59.615Z,2.70
2019-03-25T20:46:28.777Z,2.70
2019-03-25T20:48:58.685Z,2.70
2019-03-25T20:51:27.597Z,2.80
2019-03-25T20:53:56.620Z,2.80
2019-03-25T20:56:25.540Z,2.80
2019-03-25T20:58:54.684Z,2.80
2019-03-25T21:01:23.605Z,2.90
2019-03-25T21:03:52.474Z,2.90
2019-03-25T21:06:21.380Z,3.00
2019-03-25T21:08:50.243Z,3.00
2019-03-25T21:11:20.024Z,3.00
2019-03-25T21:13:48.888Z,3.00
2019-03-25T21:16:17.835Z,3.00
2019-03-25T21:18:46.716Z,3.00
2019-03-25T21:21:15.577Z,3.00
2019-03-25T21:23:44.427Z,3.00
2019-03-25T21:26:13.343Z,3.00
2019-03-25T21:28:42.251Z,3.00
2019-03-25T21:31:11.114Z,3.10
2019-03-25T21:33:39.995Z,3.10
2019-03-25T21:36:08.823Z,3.10
2019-03-25T21:38:37.687Z,3.00
2019-03-25T21:41:06.523Z,3.00
2019-03-25T21:43:35.442Z,3.00
2019-03-25T21:46:04.324Z,3.00
2019-03-25T21:48:33.260Z,3.00
2019-03-25T21:51:02.110Z,2.90
2019-03-25T21:53:30.979Z,2.90
2019-03-25T21:55:59.890Z,2.90
2019-03-25T21:58:28.766Z,2.80
2019-03-25T22:00:57.666Z,2.80
2019-03-25T22:03:26.464Z,2.80
2019-03-25T22:05:55.340Z,2.80
2019-03-25T22:08:24.203Z,2.70
2019-03-25T22:10:53.221Z,2.70
2019-03-25T22:13:22.068Z,2.70
2019-03-25T22:15:50.936Z,2.60
2019-03-25T22:18:19.766Z,2.60
2019-03-25T22:20:48.628Z,2.50
2019-03-25T22:23:17.487Z,2.50
2019-03-25T22:25:46.328Z,2.40
2019-03-25T22:28:15.188Z,2.40
2019-03-25T22:30:44.051Z,2.30
2019-03-25T22:33:25.088Z,2.30
2019-03-25T22:35:43.426Z,2.20
2019-03-25T22:38:12.292Z,2.10
2019-03-25T22:40:41.117Z,2.00
2019-03-25T22:43:09.983Z,2.00
2019-03-25T22:45:38.846Z,1.90
2019-03-25T22:48:07.756Z,1.90
2019-03-25T22:50:36.644Z,1.80
2019-03-25T22:53:05.587Z,1.80
2019-03-25T22:55:34.412Z,1.80
2019-03-25T22:58:03.279Z,1.80
2019-03-25T23:00:33.714Z,1.80
2019-03-25T23:03:02.560Z,1.70
2019-03-25T23:05:31.400Z,1.80
2019-03-25T23:08:00.254Z,1.80
2019-03-25T23:10:29.094Z,1.80
2019-03-25T23:12:57.968Z,1.80
2019-03-25T23:15:26.835Z,1.80
2019-03-25T23:17:55.670Z,1.80
2019-03-25T23:20:24.520Z,1.90
2019-03-25T23:22:53.391Z,1.90
2019-03-25T23:25:22.225Z,1.90
2019-03-25T23:27:51.187Z,1.90
2019-03-25T23:30:20.051Z,1.90
2019-03-25T23:32:48.875Z,1.90
2019-03-25T23:35:17.743Z,1.90
2019-03-25T23:37:46.612Z,1.90
2019-03-25T23:40:15.453Z,1.80
2019-03-25T23:42:44.299Z,1.80
2019-03-25T23:45:13.667Z,1.80
2019-03-25T23:47:42.492Z,1.70
2019-03-25T23:50:11.367Z,1.60
2019-03-25T23:52:40.232Z,1.60
2019-03-25T23:55:09.459Z,1.60
2019-03-25T23:57:38.330Z,1.50
